sensor_id;sensor_type;location;lat;lon;timestamp;temperature;humidity
37868;DHT22;24011;48.880;9.190;2022-12-07T00:01:17;23.80;38.00
37868;DHT22;24011;48.880;9.190;2022-12-07T00:04:28;23.70;38.10
37868;DHT22;24011;48.880;9.190;2022-12-07T00:07:40;23.70;38.10
37868;DHT22;24011;48.880;9.190;2022-12-07T00:11:08;23.70;38.20
37868;DHT22;24011;48.880;9.190;2022-12-07T00:14:16;23.80;38.10
37868;DHT22;24011;48.880;9.190;2022-12-07T00:17:26;23.70;38.20
37868;DHT22;24011;48.880;9.190;2022-12-07T00:20:22;23.70;38.10
37868;DHT22;24011;48.880;9.190;2022-12-07T00:23:28;23.70;38.10
37868;DHT22;24011;48.880;9.190;2022-12-07T00:26:35;23.80;37.90
37868;DHT22;24011;48.880;9.190;2022-12-07T00:29:38;23.80;38.10
37868;DHT22;24011;48.880;9.190;2022-12-07T00:33:01;23.80;38.00
37868;DHT22;24011;48.880;9.190;2022-12-07T00:36:08;23.80;38.00
37868;DHT22;24011;48.880;9.190;2022-12-07T00:39:14;23.80;37.90
37868;DHT22;24011;48.880;9.190;2022-12-07T00:42:22;23.80;38.00
37868;DHT22;24011;48.880;9.190;2022-12-07T00:45:16;23.80;38.00
37868;DHT22;24011;48.880;9.190;2022-12-07T00:48:11;23.70;38.10
37868;DHT22;24011;48.880;9.190;2022-12-07T00:51:14;23.70;38.10
37868;DHT22;24011;48.880;9.190;2022-12-07T00:54:26;23.70;38.10
37868;DHT22;24011;48.880;9.190;2022-12-07T00:57:38;23.80;37.90
37868;DHT22;24011;48.880;9.190;2022-12-07T01:00:52;23.70;38.10
37868;DHT22;24011;48.880;9.190;2022-12-07T01:04:02;23.80;38.00
37868;DHT22;24011;48.880;9.190;2022-12-07T01:07:16;23.80;38.00
37868;DHT22;24011;48.880;9.190;2022-12-07T01:10:32;23.80;38.00
37868;DHT22;24011;48.880;9.190;2022-12-07T01:13:59;23.80;38.20
37868;DHT22;24011;48.880;9.190;2022-12-07T01:17:08;23.80;38.10
37868;DHT22;24011;48.880;9.190;2022-12-07T01:20:17;23.70;38.20
37868;DHT22;24011;48.880;9.190;2022-12-07T01:23:22;23.70;38.10
37868;DHT22;24011;48.880;9.190;2022-12-07T01:26:34;23.70;38.20
37868;DHT22;24011;48.880;9.190;2022-12-07T01:29:44;23.70;38.20
37868;DHT22;24011;48.880;9.190;2022-12-07T01:32:44;23.60;38.20
37868;DHT22;24011;48.880;9.190;2022-12-07T01:35:42;23.70;38.10
37868;DHT22;24011;48.880;9.190;2022-12-07T01:38:45;23.70;38.30
37868;DHT22;24011;48.880;9.190;2022-12-07T01:41:42;23.80;38.10
37868;DHT22;24011;48.880;9.190;2022-12-07T01:48:33;23.70;38.20
37868;DHT22;24011;48.880;9.190;2022-12-07T01:51:39;23.60;38.30
37868;DHT22;24011;48.880;9.190;2022-12-07T01:54:40;23.70;38.20
37868;DHT22;24011;48.880;9.190;2022-12-07T01:57:42;23.70;38.20
37868;DHT22;24011;48.880;9.190;2022-12-07T02:00:41;23.80;38.20
37868;DHT22;24011;48.880;9.190;2022-12-07T02:03:45;23.70;38.20
37868;DHT22;24011;48.880;9.190;2022-12-07T02:06:41;23.70;38.10
37868;DHT22;24011;48.880;9.190;2022-12-07T02:09:45;23.80;38.20
37868;DHT22;24011;48.880;9.190;2022-12-07T02:12:43;23.80;38.20
37868;DHT22;24011;48.880;9.190;2022-12-07T02:16:11;23.70;38.20
37868;DHT22;24011;48.880;9.190;2022-12-07T02:23:46;23.80;38.30
37868;DHT22;24011;48.880;9.190;2022-12-07T02:30:32;23.80;38.20
37868;DHT22;24011;48.880;9.190;2022-12-07T02:33:40;23.70;38.10
37868;DHT22;24011;48.880;9.190;2022-12-07T02:36:54;23.60;38.40
37868;DHT22;24011;48.880;9.190;2022-12-07T02:40:07;23.70;38.20
37868;DHT22;24011;48.880;9.190;2022-12-07T02:43:33;23.70;38.30
37868;DHT22;24011;48.880;9.190;2022-12-07T02:46:59;23.70;38.30
37868;DHT22;24011;48.880;9.190;2022-12-07T02:50:18;23.60;38.40
37868;DHT22;24011;48.880;9.190;2022-12-07T02:53:29;23.70;38.30
37868;DHT22;24011;48.880;9.190;2022-12-07T02:56:30;23.70;38.40
37868;DHT22;24011;48.880;9.190;2022-12-07T02:59:45;23.70;38.30
37868;DHT22;24011;48.880;9.190;2022-12-07T03:03:16;23.60;38.40
37868;DHT22;24011;48.880;9.190;2022-12-07T03:06:41;23.70;38.30
37868;DHT22;24011;48.880;9.190;2022-12-07T03:09:53;23.70;38.30
37868;DHT22;24011;48.880;9.190;2022-12-07T03:13:03;23.80;38.20
37868;DHT22;24011;48.880;9.190;2022-12-07T03:16:12;23.70;38.40
37868;DHT22;24011;48.880;9.190;2022-12-07T03:19:27;23.70;38.30
37868;DHT22;24011;48.880;9.190;2022-12-07T03:22:29;23.70;38.30
37868;DHT22;24011;48.880;9.190;2022-12-07T03:25:42;23.70;38.20
37868;DHT22;24011;48.880;9.190;2022-12-07T03:28:54;23.70;38.40
37868;DHT22;24011;48.880;9.190;2022-12-07T03:32:00;23.70;38.30
37868;DHT22;24011;48.880;9.190;2022-12-07T03:35:28;23.60;38.50
37868;DHT22;24011;48.880;9.190;2022-12-07T03:38:25;23.70;38.40
37868;DHT22;24011;48.880;9.190;2022-12-07T03:41:31;23.70;38.30
37868;DHT22;24011;48.880;9.190;2022-12-07T03:44:37;23.70;38.30
37868;DHT22;24011;48.880;9.190;2022-12-07T03:47:37;23.70;38.40
37868;DHT22;24011;48.880;9.190;2022-12-07T03:50:43;23.70;38.30
37868;DHT22;24011;48.880;9.190;2022-12-07T03:53:48;23.70;38.40
37868;DHT22;24011;48.880;9.190;2022-12-07T03:56:48;23.70;38.40
37868;DHT22;24011;48.880;9.190;2022-12-07T03:59:42;23.60;38.40
37868;DHT22;24011;48.880;9.190;2022-12-07T04:02:36;23.60;38.40
37868;DHT22;24011;48.880;9.190;2022-12-07T04:05:47;23.60;38.30
37868;DHT22;24011;48.880;9.190;2022-12-07T04:08:36;23.40;38.00
37868;DHT22;24011;48.880;9.190;2022-12-07T04:11:29;23.20;38.00
37868;DHT22;24011;48.880;9.190;2022-12-07T04:14:13;23.10;38.20
37868;DHT22;24011;48.880;9.190;2022-12-07T04:17:29;23.30;38.20
37868;DHT22;24011;48.880;9.190;2022-12-07T04:20:19;23.30;38.20
37868;DHT22;24011;48.880;9.190;2022-12-07T04:23:19;23.30;38.20
37868;DHT22;24011;48.880;9.190;2022-12-07T04:26:12;23.30;38.20
37868;DHT22;24011;48.880;9.190;2022-12-07T04:29:17;23.30;38.40
37868;DHT22;24011;48.880;9.190;2022-12-07T04:32:19;23.30;38.50
37868;DHT22;24011;48.880;9.190;2022-12-07T04:35:25;23.20;38.50
37868;DHT22;24011;48.880;9.190;2022-12-07T04:38:31;23.20;38.80
37868;DHT22;24011;48.880;9.190;2022-12-07T04:41:26;23.30;38.60
37868;DHT22;24011;48.880;9.190;2022-12-07T04:44:19;23.20;39.00
37868;DHT22;24011;48.880;9.190;2022-12-07T04:47:31;23.30;38.90
37868;DHT22;24011;48.880;9.190;2022-12-07T04:50:23;23.30;38.80
37868;DHT22;24011;48.880;9.190;2022-12-07T04:53:31;23.20;38.90
37868;DHT22;24011;48.880;9.190;2022-12-07T04:56:31;23.20;39.10
37868;DHT22;24011;48.880;9.190;2022-12-07T04:59:31;23.10;39.10
37868;DHT22;24011;48.880;9.190;2022-12-07T05:02:32;23.10;39.40
37868;DHT22;24011;48.880;9.190;2022-12-07T05:05:41;23.10;39.40
37868;DHT22;24011;48.880;9.190;2022-12-07T05:08:49;23.10;39.40
37868;DHT22;24011;48.880;9.190;2022-12-07T05:11:55;23.10;39.50
37868;DHT22;24011;48.880;9.190;2022-12-07T05:14:53;23.10;39.40
37868;DHT22;24011;48.880;9.190;2022-12-07T05:17:55;23.00;39.50
37868;DHT22;24011;48.880;9.190;2022-12-07T05:20:53;23.10;39.30
37868;DHT22;24011;48.880;9.190;2022-12-07T05:24:08;23.20;39.20
37868;DHT22;24011;48.880;9.190;2022-12-07T05:27:06;23.20;39.30
37868;DHT22;24011;48.880;9.190;2022-12-07T05:30:07;23.20;39.30
37868;DHT22;24011;48.880;9.190;2022-12-07T05:33:11;23.20;39.50
37868;DHT22;24011;48.880;9.190;2022-12-07T05:36:20;23.20;39.40
37868;DHT22;24011;48.880;9.190;2022-12-07T05:39:41;23.20;39.30
37868;DHT22;24011;48.880;9.190;2022-12-07T05:42:40;23.20;39.40
37868;DHT22;24011;48.880;9.190;2022-12-07T05:45:41;23.10;39.50
37868;DHT22;24011;48.880;9.190;2022-12-07T05:48:36;23.20;39.70
37868;DHT22;24011;48.880;9.190;2022-12-07T05:51:18;23.20;39.40
37868;DHT22;24011;48.880;9.190;2022-12-07T05:54:28;23.20;39.40
37868;DHT22;24011;48.880;9.190;2022-12-07T05:57:24;23.20;39.60
37868;DHT22;24011;48.880;9.190;2022-12-07T06:00:30;23.30;39.50
37868;DHT22;24011;48.880;9.190;2022-12-07T06:03:24;23.20;39.30
37868;DHT22;24011;48.880;9.190;2022-12-07T06:06:50;23.30;39.20
37868;DHT22;24011;48.880;9.190;2022-12-07T06:10:32;23.30;39.40
37868;DHT22;24011;48.880;9.190;2022-12-07T06:14:26;23.30;39.20
37868;DHT22;24011;48.880;9.190;2022-12-07T06:17:44;23.30;39.10
37868;DHT22;24011;48.880;9.190;2022-12-07T06:21:56;23.30;39.10
37868;DHT22;24011;48.880;9.190;2022-12-07T06:29:20;23.30;38.90
37868;DHT22;24011;48.880;9.190;2022-12-07T06:32:44;23.30;39.10
37868;DHT22;24011;48.880;9.190;2022-12-07T06:36:08;23.30;39.00
37868;DHT22;24011;48.880;9.190;2022-12-07T06:39:15;23.30;39.00
37868;DHT22;24011;48.880;9.190;2022-12-07T06:42:39;23.30;38.90
37868;DHT22;24011;48.880;9.190;2022-12-07T06:45:38;23.30;39.00
37868;DHT22;24011;48.880;9.190;2022-12-07T06:48:56;23.30;38.90
37868;DHT22;24011;48.880;9.190;2022-12-07T06:51:56;23.30;39.10
37868;DHT22;24011;48.880;9.190;2022-12-07T06:55:14;23.40;38.80
37868;DHT22;24011;48.880;9.190;2022-12-07T06:58:08;23.30;39.00
37868;DHT22;24011;48.880;9.190;2022-12-07T07:01:37;23.40;39.00
37868;DHT22;24011;48.880;9.190;2022-12-07T07:04:12;23.40;38.90
37868;DHT22;24011;48.880;9.190;2022-12-07T07:06:52;23.30;39.00
37868;DHT22;24011;48.880;9.190;2022-12-07T07:09:46;23.30;39.10
37868;DHT22;24011;48.880;9.190;2022-12-07T12:00:37;25.40;36.00
37868;DHT22;24011;48.880;9.190;2022-12-07T12:04:32;25.20;36.10
37868;DHT22;24011;48.880;9.190;2022-12-07T12:07:15;25.20;36.40
37868;DHT22;24011;48.880;9.190;2022-12-07T12:10:35;25.00;36.70
37868;DHT22;24011;48.880;9.190;2022-12-07T12:17:41;25.00;36.70
37868;DHT22;24011;48.880;9.190;2022-12-07T12:20:43;25.10;36.60
37868;DHT22;24011;48.880;9.190;2022-12-07T12:41:03;25.40;35.80
37868;DHT22;24011;48.880;9.190;2022-12-07T12:44:10;25.40;36.10
37868;DHT22;24011;48.880;9.190;2022-12-07T12:47:41;25.40;36.00
37868;DHT22;24011;48.880;9.190;2022-12-07T13:03:55;25.10;36.80
37868;DHT22;24011;48.880;9.190;2022-12-07T13:06:40;25.10;36.60
37868;DHT22;24011;48.880;9.190;2022-12-07T13:09:29;25.00;36.80
37868;DHT22;24011;48.880;9.190;2022-12-07T13:12:22;25.10;36.70
37868;DHT22;24011;48.880;9.190;2022-12-07T13:15:36;25.00;36.60
37868;DHT22;24011;48.880;9.190;2022-12-07T13:18:39;24.90;36.90
37868;DHT22;24011;48.880;9.190;2022-12-07T13:21:42;24.90;36.90
37868;DHT22;24011;48.880;9.190;2022-12-07T13:25:03;25.00;36.70
37868;DHT22;24011;48.880;9.190;2022-12-07T13:27:59;25.00;36.70
37868;DHT22;24011;48.880;9.190;2022-12-07T13:30:46;25.00;36.80
37868;DHT22;24011;48.880;9.190;2022-12-07T13:33:36;25.10;36.50
37868;DHT22;24011;48.880;9.190;2022-12-07T13:36:21;24.90;36.70
37868;DHT22;24011;48.880;9.190;2022-12-07T13:39:27;25.00;36.60
37868;DHT22;24011;48.880;9.190;2022-12-07T13:42:15;25.00;36.70
37868;DHT22;24011;48.880;9.190;2022-12-07T13:45:16;24.90;36.70
37868;DHT22;24011;48.880;9.190;2022-12-07T13:48:43;24.90;36.60
37868;DHT22;24011;48.880;9.190;2022-12-07T13:51:39;24.90;36.70
37868;DHT22;24011;48.880;9.190;2022-12-07T13:54:27;24.90;36.60
37868;DHT22;24011;48.880;9.190;2022-12-07T13:57:21;24.90;36.70
37868;DHT22;24011;48.880;9.190;2022-12-07T14:00:02;24.90;36.60
37868;DHT22;24011;48.880;9.190;2022-12-07T14:02:58;24.80;36.90
37868;DHT22;24011;48.880;9.190;2022-12-07T14:06:14;24.80;36.90
37868;DHT22;24011;48.880;9.190;2022-12-07T14:09:22;24.80;36.80
37868;DHT22;24011;48.880;9.190;2022-12-07T14:11:58;24.70;37.00
37868;DHT22;24011;48.880;9.190;2022-12-07T14:15:04;24.70;37.30
37868;DHT22;24011;48.880;9.190;2022-12-07T14:17:58;24.60;37.20
37868;DHT22;24011;48.880;9.190;2022-12-07T14:21:13;24.60;37.00
37868;DHT22;24011;48.880;9.190;2022-12-07T14:24:30;24.60;37.10
37868;DHT22;24011;48.880;9.190;2022-12-07T14:27:34;24.50;37.20
37868;DHT22;24011;48.880;9.190;2022-12-07T14:30:45;24.50;37.30
37868;DHT22;24011;48.880;9.190;2022-12-07T14:33:31;24.50;37.10
37868;DHT22;24011;48.880;9.190;2022-12-07T14:36:17;24.50;37.30
37868;DHT22;24011;48.880;9.190;2022-12-07T14:39:10;24.40;37.30
37868;DHT22;24011;48.880;9.190;2022-12-07T14:42:00;24.40;37.40
37868;DHT22;24011;48.880;9.190;2022-12-07T14:44:51;24.50;37.10
37868;DHT22;24011;48.880;9.190;2022-12-07T14:47:35;24.50;37.10
37868;DHT22;24011;48.880;9.190;2022-12-07T14:50:38;24.50;37.00
37868;DHT22;24011;48.880;9.190;2022-12-07T14:54:02;24.40;37.20
37868;DHT22;24011;48.880;9.190;2022-12-07T14:57:08;24.50;36.90
37868;DHT22;24011;48.880;9.190;2022-12-07T15:00:14;24.40;37.10
37868;DHT22;24011;48.880;9.190;2022-12-07T15:03:07;24.40;37.00
37868;DHT22;24011;48.880;9.190;2022-12-07T15:05:56;24.40;37.00
37868;DHT22;24011;48.880;9.190;2022-12-07T15:08:48;24.40;37.20
37868;DHT22;24011;48.880;9.190;2022-12-07T15:11:25;24.40;37.10
37868;DHT22;24011;48.880;9.190;2022-12-07T15:14:00;24.40;37.00
37868;DHT22;24011;48.880;9.190;2022-12-07T15:16:48;24.40;37.10
37868;DHT22;24011;48.880;9.190;2022-12-07T15:19:41;24.20;37.80
37868;DHT22;24011;48.880;9.190;2022-12-07T15:22:14;24.30;37.30
37868;DHT22;24011;48.880;9.190;2022-12-07T15:24:52;24.30;37.20
37868;DHT22;24011;48.880;9.190;2022-12-07T15:27:28;24.30;37.40
37868;DHT22;24011;48.880;9.190;2022-12-07T15:30:07;24.30;37.30
37868;DHT22;24011;48.880;9.190;2022-12-07T15:32:50;24.30;37.30
37868;DHT22;24011;48.880;9.190;2022-12-07T15:35:32;24.20;37.40
37868;DHT22;24011;48.880;9.190;2022-12-07T15:38:13;24.20;37.40
37868;DHT22;24011;48.880;9.190;2022-12-07T15:41:10;24.30;37.40
37868;DHT22;24011;48.880;9.190;2022-12-07T15:44:02;24.30;37.20
37868;DHT22;24011;48.880;9.190;2022-12-07T15:47:23;24.30;37.30
37868;DHT22;24011;48.880;9.190;2022-12-07T15:51:01;24.30;37.30
37868;DHT22;24011;48.880;9.190;2022-12-07T15:54:37;24.20;37.30
37868;DHT22;24011;48.880;9.190;2022-12-07T15:57:33;24.20;37.40
37868;DHT22;24011;48.880;9.190;2022-12-07T16:00:50;24.30;37.20
37868;DHT22;24011;48.880;9.190;2022-12-07T16:03:30;24.30;37.00
37868;DHT22;24011;48.880;9.190;2022-12-07T16:07:05;24.20;37.20
37868;DHT22;24011;48.880;9.190;2022-12-07T16:10:56;24.20;37.10
37868;DHT22;24011;48.880;9.190;2022-12-07T16:15:20;24.40;36.90
37868;DHT22;24011;48.880;9.190;2022-12-07T16:18:41;24.30;37.00
37868;DHT22;24011;48.880;9.190;2022-12-07T16:22:16;24.30;36.80
37868;DHT22;24011;48.880;9.190;2022-12-07T16:26:08;24.30;36.80
37868;DHT22;24011;48.880;9.190;2022-12-07T16:29:34;24.20;36.90
37868;DHT22;24011;48.880;9.190;2022-12-07T16:32:36;24.20;36.90
37868;DHT22;24011;48.880;9.190;2022-12-07T16:36:29;24.10;37.00
37868;DHT22;24011;48.880;9.190;2022-12-07T16:47:46;24.10;37.10
37868;DHT22;24011;48.880;9.190;2022-12-07T16:51:04;24.10;37.10
37868;DHT22;24011;48.880;9.190;2022-12-07T16:54:42;24.10;36.80
37868;DHT22;24011;48.880;9.190;2022-12-07T17:10:31;24.10;36.50
37868;DHT22;24011;48.880;9.190;2022-12-07T17:14:25;24.00;36.80
37868;DHT22;24011;48.880;9.190;2022-12-07T17:18:25;24.00;36.80
37868;DHT22;24011;48.880;9.190;2022-12-07T17:22:06;23.90;36.80
37868;DHT22;24011;48.880;9.190;2022-12-07T17:25:12;23.90;36.70
37868;DHT22;24011;48.880;9.190;2022-12-07T17:28:24;24.00;36.90
37868;DHT22;24011;48.880;9.190;2022-12-07T17:31:57;24.10;36.50
37868;DHT22;24011;48.880;9.190;2022-12-07T17:35:12;24.10;36.50
37868;DHT22;24011;48.880;9.190;2022-12-07T17:38:38;24.00;36.60
37868;DHT22;24011;48.880;9.190;2022-12-07T17:42:01;23.90;36.70
37868;DHT22;24011;48.880;9.190;2022-12-07T17:45:26;24.00;36.50
37868;DHT22;24011;48.880;9.190;2022-12-07T17:48:26;24.00;36.50
37868;DHT22;24011;48.880;9.190;2022-12-07T17:51:43;24.10;36.40
37868;DHT22;24011;48.880;9.190;2022-12-07T17:55:04;24.10;36.50
37868;DHT22;24011;48.880;9.190;2022-12-07T17:58:38;24.00;36.50
37868;DHT22;24011;48.880;9.190;2022-12-07T18:02:19;23.90;36.70
37868;DHT22;24011;48.880;9.190;2022-12-07T18:05:41;24.00;36.40
37868;DHT22;24011;48.880;9.190;2022-12-07T18:09:13;23.90;36.60
37868;DHT22;24011;48.880;9.190;2022-12-07T18:12:38;23.90;36.40
37868;DHT22;24011;48.880;9.190;2022-12-07T18:16:25;24.10;36.30
37868;DHT22;24011;48.880;9.190;2022-12-07T18:19:38;24.00;36.40
37868;DHT22;24011;48.880;9.190;2022-12-07T18:23:07;23.90;36.70
37868;DHT22;24011;48.880;9.190;2022-12-07T18:26:27;23.90;36.60
37868;DHT22;24011;48.880;9.190;2022-12-07T18:30:01;24.10;36.40
37868;DHT22;24011;48.880;9.190;2022-12-07T18:33:45;23.90;36.50
37868;DHT22;24011;48.880;9.190;2022-12-07T18:36:47;24.00;36.40
37868;DHT22;24011;48.880;9.190;2022-12-07T18:39:47;24.10;36.40
37868;DHT22;24011;48.880;9.190;2022-12-07T18:42:40;24.00;36.50
37868;DHT22;24011;48.880;9.190;2022-12-07T18:45:43;23.70;36.90
37868;DHT22;24011;48.880;9.190;2022-12-07T18:48:49;23.90;36.70
37868;DHT22;24011;48.880;9.190;2022-12-07T18:52:00;23.80;36.70
37868;DHT22;24011;48.880;9.190;2022-12-07T18:55:09;23.80;37.00
37868;DHT22;24011;48.880;9.190;2022-12-07T18:58:13;23.80;36.70
37868;DHT22;24011;48.880;9.190;2022-12-07T19:01:21;23.70;36.90
37868;DHT22;24011;48.880;9.190;2022-12-07T19:04:24;23.90;36.70
37868;DHT22;24011;48.880;9.190;2022-12-07T19:07:36;23.70;36.80
37868;DHT22;24011;48.880;9.190;2022-12-07T19:10:43;23.90;36.70
37868;DHT22;24011;48.880;9.190;2022-12-07T19:14:08;23.90;36.70
37868;DHT22;24011;48.880;9.190;2022-12-07T19:17:13;24.00;36.70
37868;DHT22;24011;48.880;9.190;2022-12-07T19:20:23;24.10;36.50
37868;DHT22;24011;48.880;9.190;2022-12-07T19:23:30;24.10;36.50
37868;DHT22;24011;48.880;9.190;2022-12-07T19:26:39;24.00;36.60
37868;DHT22;24011;48.880;9.190;2022-12-07T19:29:46;24.10;36.50
37868;DHT22;24011;48.880;9.190;2022-12-07T19:32:54;24.10;36.50
37868;DHT22;24011;48.880;9.190;2022-12-07T19:36:02;24.10;36.40
37868;DHT22;24011;48.880;9.190;2022-12-07T19:39:13;24.10;36.50
37868;DHT22;24011;48.880;9.190;2022-12-07T19:42:19;24.10;36.40
37868;DHT22;24011;48.880;9.190;2022-12-07T19:45:20;24.10;36.50
37868;DHT22;24011;48.880;9.190;2022-12-07T19:48:27;24.10;36.40
37868;DHT22;24011;48.880;9.190;2022-12-07T19:51:26;24.10;36.50
37868;DHT22;24011;48.880;9.190;2022-12-07T19:54:37;24.20;36.50
37868;DHT22;24011;48.880;9.190;2022-12-07T19:57:39;24.10;36.50
37868;DHT22;24011;48.880;9.190;2022-12-07T20:00:58;24.20;36.50
37868;DHT22;24011;48.880;9.190;2022-12-07T20:04:02;24.10;36.60
37868;DHT22;24011;48.880;9.190;2022-12-07T20:07:13;24.10;36.50
37868;DHT22;24011;48.880;9.190;2022-12-07T20:10:20;24.10;36.60
37868;DHT22;24011;48.880;9.190;2022-12-07T20:13:28;24.10;36.50
37868;DHT22;24011;48.880;9.190;2022-12-07T20:16:25;24.10;36.60
37868;DHT22;24011;48.880;9.190;2022-12-07T20:19:37;24.20;36.60
37868;DHT22;24011;48.880;9.190;2022-12-07T20:22:40;24.10;36.60
37868;DHT22;24011;48.880;9.190;2022-12-07T20:25:59;24.10;36.50
37868;DHT22;24011;48.880;9.190;2022-12-07T20:29:03;24.10;36.70
37868;DHT22;24011;48.880;9.190;2022-12-07T20:32:16;24.10;36.70
37868;DHT22;24011;48.880;9.190;2022-12-07T20:35:20;24.10;36.80
37868;DHT22;24011;48.880;9.190;2022-12-07T20:38:26;24.10;36.70
37868;DHT22;24011;48.880;9.190;2022-12-07T20:41:37;24.10;36.80
37868;DHT22;24011;48.880;9.190;2022-12-07T20:44:56;24.10;36.80
37868;DHT22;24011;48.880;9.190;2022-12-07T20:48:01;24.10;36.80
37868;DHT22;24011;48.880;9.190;2022-12-07T20:51:13;24.10;36.70
37868;DHT22;24011;48.880;9.190;2022-12-07T20:54:13;24.10;36.80
37868;DHT22;24011;48.880;9.190;2022-12-07T20:57:26;24.10;36.90
37868;DHT22;24011;48.880;9.190;2022-12-07T21:00:27;24.10;36.80
37868;DHT22;24011;48.880;9.190;2022-12-07T21:03:37;24.10;36.80
37868;DHT22;24011;48.880;9.190;2022-12-07T21:06:40;24.10;36.80
37868;DHT22;24011;48.880;9.190;2022-12-07T21:09:55;24.20;36.90
37868;DHT22;24011;48.880;9.190;2022-12-07T21:12:55;24.20;36.80
37868;DHT22;24011;48.880;9.190;2022-12-07T21:16:27;24.10;36.80
37868;DHT22;24011;48.880;9.190;2022-12-07T21:19:55;24.00;36.90
37868;DHT22;24011;48.880;9.190;2022-12-07T21:24:08;24.10;36.90
37868;DHT22;24011;48.880;9.190;2022-12-07T21:52:17;24.20;36.60
37868;DHT22;24011;48.880;9.190;2022-12-07T21:56:32;24.20;36.80
37868;DHT22;24011;48.880;9.190;2022-12-07T22:27:58;24.20;36.90
37868;DHT22;24011;48.880;9.190;2022-12-07T22:31:11;24.10;37.30
37868;DHT22;24011;48.880;9.190;2022-12-07T22:34:44;24.10;36.90
37868;DHT22;24011;48.880;9.190;2022-12-07T22:38:46;24.10;37.00
37868;DHT22;24011;48.880;9.190;2022-12-07T22:59:16;24.10;37.10
37868;DHT22;24011;48.880;9.190;2022-12-07T23:03:40;24.10;37.00
37868;DHT22;24011;48.880;9.190;2022-12-07T23:08:04;24.10;37.00
37868;DHT22;24011;48.880;9.190;2022-12-07T23:11:32;24.10;37.00
37868;DHT22;24011;48.880;9.190;2022-12-07T23:39:16;24.10;37.20
37868;DHT22;24011;48.880;9.190;2022-12-07T23:42:40;24.10;37.00
37868;DHT22;24011;48.880;9.190;2022-12-07T23:46:17;24.10;37.10
37868;DHT22;24011;48.880;9.190;2022-12-07T23:49:45;24.10;37.00
37868;DHT22;24011;48.880;9.190;2022-12-07T23:53:10;24.10;37.10
37868;DHT22;24011;48.880;9.190;2022-12-07T23:56:29;24.10;37.00
37868;DHT22;24011;48.880;9.190;2022-12-07T23:59:39;24.10;36.90
